Egyek, Hungary
Current Conditions -  °F | °C
As of 2:23 AM on Wednesday 22 Oct 2014 (Local Time) from LHDC Reporting Station
NA  
Wind Chill: 52°   Ceiling: NA
Heat Index: 52°   Visibility: NA
Dew Point: 52°   Wind: 7mph
Humidity: 100%   Direction: 140°SE
Pressure: 29.68"   Gusts: NA
Location:  47.62°N, 20.89°E
Report Text: LHDC 220023Z AUTO 14006KT 11/11 Q1005
Loading
Personal Weather Stations






























Interactive Weather Map
Tropical Storm Tracking
New forecast layout! Learn more

10-Day Weather Forecast

Advertisements
Track Severe Weather on mobile